sensor_id;sensor_type;location;lat;lon;timestamp;pressure;altitude;pressure_sealevel;temperature;humidity
32237;BME280;18726;44.732;10.550;2023-11-19T00:01:07;101692.81;;;11.88;81.00
32237;BME280;18726;44.732;10.550;2023-11-19T00:04:11;101694.16;;;11.82;79.96
32237;BME280;18726;44.732;10.550;2023-11-19T00:07:14;101697.41;;;11.96;80.16
32237;BME280;18726;44.732;10.550;2023-11-19T00:10:19;101700.50;;;11.86;76.09
32237;BME280;18726;44.732;10.550;2023-11-19T00:13:23;101703.59;;;12.05;76.84
32237;BME280;18726;44.732;10.550;2023-11-19T00:16:26;101693.78;;;12.34;81.71
32237;BME280;18726;44.732;10.550;2023-11-19T00:19:31;101695.53;;;11.88;76.53
32237;BME280;18726;44.732;10.550;2023-11-19T00:22:34;101705.97;;;12.69;91.98
32237;BME280;18726;44.732;10.550;2023-11-19T00:25:38;101703.06;;;12.54;84.44
32237;BME280;18726;44.732;10.550;2023-11-19T00:28:42;101708.19;;;12.88;81.81
32237;BME280;18726;44.732;10.550;2023-11-19T00:31:47;101705.31;;;13.17;81.18
32237;BME280;18726;44.732;10.550;2023-11-19T00:34:51;101729.47;;;13.64;97.65
32237;BME280;18726;44.732;10.550;2023-11-19T00:37:54;101717.06;;;13.67;80.37
32237;BME280;18726;44.732;10.550;2023-11-19T00:40:58;101715.03;;;13.76;90.11
32237;BME280;18726;44.732;10.550;2023-11-19T00:44:02;101712.75;;;13.41;91.22
32237;BME280;18726;44.732;10.550;2023-11-19T00:47:06;101719.22;;;13.04;81.71
32237;BME280;18726;44.732;10.550;2023-11-19T00:50:09;101721.84;;;13.45;91.64
32237;BME280;18726;44.732;10.550;2023-11-19T00:53:13;101720.81;;;12.93;76.22
32237;BME280;18726;44.732;10.550;2023-11-19T00:56:16;101722.94;;;12.54;78.16
32237;BME280;18726;44.732;10.550;2023-11-19T00:59:20;101704.78;;;12.16;78.43
32237;BME280;18726;44.732;10.550;2023-11-19T01:02:24;101706.03;;;12.94;97.60
32237;BME280;18726;44.732;10.550;2023-11-19T01:05:28;101701.84;;;13.08;85.07
32237;BME280;18726;44.732;10.550;2023-11-19T01:08:32;101707.31;;;13.08;85.43
32237;BME280;18726;44.732;10.550;2023-11-19T01:11:35;101700.50;;;13.14;76.35
32237;BME280;18726;44.732;10.550;2023-11-19T01:14:39;101703.63;;;13.25;91.76
32237;BME280;18726;44.732;10.550;2023-11-19T01:17:43;101696.25;;;13.26;76.23
32237;BME280;18726;44.732;10.550;2023-11-19T01:20:47;101694.34;;;12.93;77.22
32237;BME280;18726;44.732;10.550;2023-11-19T01:23:51;101709.31;;;12.54;82.49
32237;BME280;18726;44.732;10.550;2023-11-19T01:26:54;101696.84;;;12.11;77.38
32237;BME280;18726;44.732;10.550;2023-11-19T01:29:57;101692.56;;;11.81;81.61
32237;BME280;18726;44.732;10.550;2023-11-19T01:33:02;101698.31;;;11.79;82.58
32237;BME280;18726;44.732;10.550;2023-11-19T01:36:06;101690.03;;;12.59;100.00
32237;BME280;18726;44.732;10.550;2023-11-19T01:39:11;101677.78;;;12.44;82.54
32237;BME280;18726;44.732;10.550;2023-11-19T01:42:15;101678.44;;;12.62;96.76
32237;BME280;18726;44.732;10.550;2023-11-19T01:45:27;101668.16;;;13.25;100.00
32237;BME280;18726;44.732;10.550;2023-11-19T01:48:34;101663.03;;;13.72;93.80
32237;BME280;18726;44.732;10.550;2023-11-19T01:51:39;101657.00;;;13.79;79.77
32237;BME280;18726;44.732;10.550;2023-11-19T01:54:43;101654.91;;;12.58;75.19
32237;BME280;18726;44.732;10.550;2023-11-19T01:57:50;101662.00;;;12.38;84.83
32237;BME280;18726;44.732;10.550;2023-11-19T02:00:54;101647.66;;;11.58;79.63
32237;BME280;18726;44.732;10.550;2023-11-19T02:03:58;101637.72;;;11.32;83.64
32237;BME280;18726;44.732;10.550;2023-11-19T02:07:02;101646.91;;;11.48;83.36
32237;BME280;18726;44.732;10.550;2023-11-19T02:10:06;101634.31;;;11.06;81.17
32237;BME280;18726;44.732;10.550;2023-11-19T02:13:16;101639.75;;;11.06;85.85
32237;BME280;18726;44.732;10.550;2023-11-19T02:16:20;101640.84;;;11.13;85.82
32237;BME280;18726;44.732;10.550;2023-11-19T02:19:24;101650.06;;;12.09;100.00
32237;BME280;18726;44.732;10.550;2023-11-19T02:22:27;101634.75;;;12.83;100.00
32237;BME280;18726;44.732;10.550;2023-11-19T02:25:32;101634.28;;;12.69;80.88
32237;BME280;18726;44.732;10.550;2023-11-19T02:28:36;101628.94;;;11.86;79.26
32237;BME280;18726;44.732;10.550;2023-11-19T02:31:40;101623.94;;;11.37;79.52
32237;BME280;18726;44.732;10.550;2023-11-19T02:34:43;101609.84;;;10.51;80.52
32237;BME280;18726;44.732;10.550;2023-11-19T02:37:47;101607.03;;;10.30;80.56
32237;BME280;18726;44.732;10.550;2023-11-19T02:40:51;101595.81;;;10.40;82.72
32237;BME280;18726;44.732;10.550;2023-11-19T02:43:55;101598.22;;;10.97;84.53
32237;BME280;18726;44.732;10.550;2023-11-19T02:46:59;101597.34;;;11.13;80.97
32237;BME280;18726;44.732;10.550;2023-11-19T02:50:03;101587.63;;;11.33;81.03
32237;BME280;18726;44.732;10.550;2023-11-19T02:53:10;101573.38;;;11.36;79.86
32237;BME280;18726;44.732;10.550;2023-11-19T02:56:14;101580.69;;;11.15;82.12
32237;BME280;18726;44.732;10.550;2023-11-19T02:59:29;101565.00;;;11.21;82.88
32237;BME280;18726;44.732;10.550;2023-11-19T03:02:42;101565.78;;;11.21;82.08
32237;BME280;18726;44.732;10.550;2023-11-19T03:05:53;101562.41;;;11.24;83.35
32237;BME280;18726;44.732;10.550;2023-11-19T03:08:57;101563.53;;;11.23;83.48
32237;BME280;18726;44.732;10.550;2023-11-19T03:12:01;101565.88;;;11.04;81.12
32237;BME280;18726;44.732;10.550;2023-11-19T03:15:05;101556.53;;;11.13;82.49
32237;BME280;18726;44.732;10.550;2023-11-19T03:18:09;101557.88;;;11.28;83.08
32237;BME280;18726;44.732;10.550;2023-11-19T03:21:13;101550.31;;;11.13;80.20
32237;BME280;18726;44.732;10.550;2023-11-19T03:24:17;101541.06;;;11.05;81.43
32237;BME280;18726;44.732;10.550;2023-11-19T03:27:20;101530.75;;;10.61;81.70
32237;BME280;18726;44.732;10.550;2023-11-19T03:30:24;101540.34;;;10.58;85.03
32237;BME280;18726;44.732;10.550;2023-11-19T03:33:28;101545.22;;;10.73;83.51
32237;BME280;18726;44.732;10.550;2023-11-19T03:36:32;101547.81;;;10.99;85.49
32237;BME280;18726;44.732;10.550;2023-11-19T03:39:37;101543.88;;;10.88;81.35
32237;BME280;18726;44.732;10.550;2023-11-19T03:42:40;101545.59;;;10.63;82.75
32237;BME280;18726;44.732;10.550;2023-11-19T03:45:44;101552.56;;;10.73;84.40
32237;BME280;18726;44.732;10.550;2023-11-19T03:48:49;101554.84;;;11.80;100.00
32237;BME280;18726;44.732;10.550;2023-11-19T03:51:53;101557.41;;;12.30;100.00
32237;BME280;18726;44.732;10.550;2023-11-19T03:54:56;101552.50;;;11.70;80.78
32237;BME280;18726;44.732;10.550;2023-11-19T03:58:00;101551.91;;;11.85;98.42
32237;BME280;18726;44.732;10.550;2023-11-19T04:01:13;101560.75;;;12.48;100.00
32237;BME280;18726;44.732;10.550;2023-11-19T04:04:17;101563.41;;;13.05;100.00
32237;BME280;18726;44.732;10.550;2023-11-19T04:07:22;101563.66;;;13.37;100.00
32237;BME280;18726;44.732;10.550;2023-11-19T04:10:26;101554.66;;;13.12;89.97
32237;BME280;18726;44.732;10.550;2023-11-19T04:13:31;101564.94;;;13.27;94.71
32237;BME280;18726;44.732;10.550;2023-11-19T04:16:34;101560.25;;;13.40;89.53
32237;BME280;18726;44.732;10.550;2023-11-19T04:19:39;101563.19;;;13.47;91.66
32237;BME280;18726;44.732;10.550;2023-11-19T04:22:44;101563.72;;;13.65;97.94
32237;BME280;18726;44.732;10.550;2023-11-19T04:25:49;101568.78;;;13.38;89.94
32237;BME280;18726;44.732;10.550;2023-11-19T04:28:53;101565.81;;;12.70;74.39
32237;BME280;18726;44.732;10.550;2023-11-19T04:31:57;101564.00;;;13.11;100.00
32237;BME280;18726;44.732;10.550;2023-11-19T04:35:02;101555.34;;;12.60;75.40
32237;BME280;18726;44.732;10.550;2023-11-19T04:38:06;101561.97;;;11.64;78.90
32237;BME280;18726;44.732;10.550;2023-11-19T04:41:10;101551.44;;;11.12;80.31
32237;BME280;18726;44.732;10.550;2023-11-19T04:44:14;101555.22;;;10.52;81.21
32237;BME280;18726;44.732;10.550;2023-11-19T04:47:19;101560.72;;;10.00;82.50
32237;BME280;18726;44.732;10.550;2023-11-19T04:50:23;101547.00;;;9.71;86.55
32237;BME280;18726;44.732;10.550;2023-11-19T04:53:26;101544.75;;;10.07;91.18
32237;BME280;18726;44.732;10.550;2023-11-19T04:56:30;101540.84;;;10.43;89.88
32237;BME280;18726;44.732;10.550;2023-11-19T04:59:34;101539.22;;;10.59;88.95
32237;BME280;18726;44.732;10.550;2023-11-19T05:02:38;101532.34;;;10.62;88.06
32237;BME280;18726;44.732;10.550;2023-11-19T05:05:41;101520.78;;;10.27;81.88
32237;BME280;18726;44.732;10.550;2023-11-19T05:08:45;101513.63;;;9.88;82.94
32237;BME280;18726;44.732;10.550;2023-11-19T05:11:49;101519.69;;;9.85;89.17
32237;BME280;18726;44.732;10.550;2023-11-19T05:14:53;101512.16;;;10.07;89.91
32237;BME280;18726;44.732;10.550;2023-11-19T05:17:56;101506.06;;;10.28;89.99
32237;BME280;18726;44.732;10.550;2023-11-19T05:21:00;101506.53;;;10.38;87.95
32237;BME280;18726;44.732;10.550;2023-11-19T05:24:04;101502.81;;;10.43;89.40
32237;BME280;18726;44.732;10.550;2023-11-19T05:27:07;101495.44;;;10.52;86.34
32237;BME280;18726;44.732;10.550;2023-11-19T05:30:11;101491.34;;;11.05;100.00
32237;BME280;18726;44.732;10.550;2023-11-19T05:33:15;101491.97;;;11.31;92.04
32237;BME280;18726;44.732;10.550;2023-11-19T05:36:19;101485.56;;;11.69;100.00
32237;BME280;18726;44.732;10.550;2023-11-19T05:39:23;101496.75;;;12.09;100.00
32237;BME280;18726;44.732;10.550;2023-11-19T05:42:28;101489.34;;;11.97;81.37
32237;BME280;18726;44.732;10.550;2023-11-19T05:45:31;101488.47;;;12.17;100.00
32237;BME280;18726;44.732;10.550;2023-11-19T05:48:36;101486.09;;;12.16;90.72
32237;BME280;18726;44.732;10.550;2023-11-19T05:51:39;101484.84;;;12.13;98.83
32237;BME280;18726;44.732;10.550;2023-11-19T05:54:43;101478.72;;;12.04;99.57
32237;BME280;18726;44.732;10.550;2023-11-19T05:57:46;101487.63;;;11.72;79.71
32237;BME280;18726;44.732;10.550;2023-11-19T06:00:50;101481.53;;;10.92;78.30
32237;BME280;18726;44.732;10.550;2023-11-19T06:03:54;101469.66;;;10.11;83.19
32237;BME280;18726;44.732;10.550;2023-11-19T06:06:57;101477.91;;;10.41;97.01
32237;BME280;18726;44.732;10.550;2023-11-19T06:10:01;101455.34;;;11.08;100.00
32237;BME280;18726;44.732;10.550;2023-11-19T06:13:06;101461.22;;;11.72;100.00
32237;BME280;18726;44.732;10.550;2023-11-19T06:16:10;101475.72;;;11.23;94.27
32237;BME280;18726;44.732;10.550;2023-11-19T06:19:14;101467.00;;;11.29;87.07
32237;BME280;18726;44.732;10.550;2023-11-19T06:22:17;101463.91;;;11.39;100.00
32237;BME280;18726;44.732;10.550;2023-11-19T06:25:21;101483.03;;;12.05;100.00
32237;BME280;18726;44.732;10.550;2023-11-19T06:28:25;101485.94;;;12.58;100.00
32237;BME280;18726;44.732;10.550;2023-11-19T06:31:28;101491.75;;;12.68;91.89
32237;BME280;18726;44.732;10.550;2023-11-19T06:34:32;101499.47;;;12.91;89.78
32237;BME280;18726;44.732;10.550;2023-11-19T06:37:40;101499.63;;;11.79;75.70
32237;BME280;18726;44.732;10.550;2023-11-19T06:40:44;101483.78;;;11.31;80.34
32237;BME280;18726;44.732;10.550;2023-11-19T06:43:48;101480.19;;;10.98;80.66
32237;BME280;18726;44.732;10.550;2023-11-19T06:46:52;101493.13;;;10.71;78.41
32237;BME280;18726;44.732;10.550;2023-11-19T06:49:55;101499.28;;;10.51;80.76
32237;BME280;18726;44.732;10.550;2023-11-19T06:52:59;101498.28;;;11.23;83.86
32237;BME280;18726;44.732;10.550;2023-11-19T06:56:03;101487.41;;;12.55;85.47
32237;BME280;18726;44.732;10.550;2023-11-19T06:59:09;101494.06;;;14.58;69.04
32237;BME280;18726;44.732;10.550;2023-11-19T07:02:13;101496.63;;;15.17;66.79
32237;BME280;18726;44.732;10.550;2023-11-19T07:05:17;101501.41;;;15.40;57.75
32237;BME280;18726;44.732;10.550;2023-11-19T07:08:21;101502.75;;;14.95;57.87
32237;BME280;18726;44.732;10.550;2023-11-19T07:11:25;101507.09;;;15.50;58.50
32237;BME280;18726;44.732;10.550;2023-11-19T07:14:30;101509.47;;;17.58;68.50
32237;BME280;18726;44.732;10.550;2023-11-19T07:17:34;101520.38;;;19.93;52.75
32237;BME280;18726;44.732;10.550;2023-11-19T07:20:38;101517.22;;;21.50;47.72
32237;BME280;18726;44.732;10.550;2023-11-19T07:23:43;101523.47;;;22.90;39.27
32237;BME280;18726;44.732;10.550;2023-11-19T07:26:47;101518.22;;;24.01;35.72
32237;BME280;18726;44.732;10.550;2023-11-19T07:29:51;101531.50;;;25.53;31.59
32237;BME280;18726;44.732;10.550;2023-11-19T07:32:54;101534.53;;;26.67;30.86
32237;BME280;18726;44.732;10.550;2023-11-19T07:35:57;101538.38;;;27.47;30.51
32237;BME280;18726;44.732;10.550;2023-11-19T07:39:03;101542.66;;;28.19;28.72
32237;BME280;18726;44.732;10.550;2023-11-19T07:42:08;101554.81;;;29.67;26.71
32237;BME280;18726;44.732;10.550;2023-11-19T07:45:13;101558.09;;;31.04;25.78
32237;BME280;18726;44.732;10.550;2023-11-19T07:48:16;101553.25;;;31.59;24.79
32237;BME280;18726;44.732;10.550;2023-11-19T07:51:21;101559.03;;;32.25;23.84
32237;BME280;18726;44.732;10.550;2023-11-19T07:54:25;101547.56;;;31.96;24.69
32237;BME280;18726;44.732;10.550;2023-11-19T07:57:29;101552.03;;;32.68;24.08
32237;BME280;18726;44.732;10.550;2023-11-19T08:00:34;101553.06;;;33.57;22.54
32237;BME280;18726;44.732;10.550;2023-11-19T08:03:37;101556.72;;;34.57;22.35
32237;BME280;18726;44.732;10.550;2023-11-19T08:06:41;101558.47;;;34.19;22.40
32237;BME280;18726;44.732;10.550;2023-11-19T08:09:45;101553.75;;;32.42;24.04
32237;BME280;18726;44.732;10.550;2023-11-19T08:12:48;101555.59;;;33.70;23.53
32237;BME280;18726;44.732;10.550;2023-11-19T08:15:52;101565.06;;;35.07;22.48
32237;BME280;18726;44.732;10.550;2023-11-19T08:18:56;101566.16;;;36.24;21.75
32237;BME280;18726;44.732;10.550;2023-11-19T08:22:01;101568.47;;;36.68;21.17
32237;BME280;18726;44.732;10.550;2023-11-19T08:25:06;101561.66;;;36.38;20.18
32237;BME280;18726;44.732;10.550;2023-11-19T08:28:09;101564.03;;;35.82;21.36
32237;BME280;18726;44.732;10.550;2023-11-19T08:31:13;101562.53;;;37.31;21.04
32237;BME280;18726;44.732;10.550;2023-11-19T08:34:17;101571.75;;;37.15;20.65
32237;BME280;18726;44.732;10.550;2023-11-19T08:37:22;101562.75;;;36.57;20.08
32237;BME280;18726;44.732;10.550;2023-11-19T08:40:27;101559.78;;;36.77;20.59
32237;BME280;18726;44.732;10.550;2023-11-19T08:43:31;101566.19;;;37.60;20.24
32237;BME280;18726;44.732;10.550;2023-11-19T08:46:35;101556.00;;;38.70;20.55
32237;BME280;18726;44.732;10.550;2023-11-19T08:49:39;101550.00;;;38.79;20.18
32237;BME280;18726;44.732;10.550;2023-11-19T08:52:43;101541.47;;;39.32;19.54
32237;BME280;18726;44.732;10.550;2023-11-19T08:55:47;101533.53;;;40.14;18.73
32237;BME280;18726;44.732;10.550;2023-11-19T08:58:50;101537.81;;;40.70;18.63
32237;BME280;18726;44.732;10.550;2023-11-19T09:01:54;101538.22;;;40.79;18.60
32237;BME280;18726;44.732;10.550;2023-11-19T09:04:58;101523.84;;;41.41;18.81
32237;BME280;18726;44.732;10.550;2023-11-19T09:08:02;101536.91;;;41.69;18.09
32237;BME280;18726;44.732;10.550;2023-11-19T09:11:09;101537.84;;;40.45;18.13
32237;BME280;18726;44.732;10.550;2023-11-19T09:14:12;101543.47;;;40.75;17.89
32237;BME280;18726;44.732;10.550;2023-11-19T09:17:16;101550.41;;;40.80;18.34
32237;BME280;18726;44.732;10.550;2023-11-19T09:20:21;101549.03;;;40.87;18.99
32237;BME280;18726;44.732;10.550;2023-11-19T09:23:25;101547.34;;;40.54;19.07
32237;BME280;18726;44.732;10.550;2023-11-19T09:26:28;101555.56;;;40.38;18.75
32237;BME280;18726;44.732;10.550;2023-11-19T09:29:32;101544.09;;;40.20;19.54
32237;BME280;18726;44.732;10.550;2023-11-19T09:32:36;101537.66;;;39.89;19.33
32237;BME280;18726;44.732;10.550;2023-11-19T09:35:41;101544.09;;;40.20;18.89
32237;BME280;18726;44.732;10.550;2023-11-19T09:38:44;101545.75;;;40.09;18.53
32237;BME280;18726;44.732;10.550;2023-11-19T09:41:48;101538.66;;;40.65;18.32
32237;BME280;18726;44.732;10.550;2023-11-19T09:44:54;101546.50;;;41.53;18.46
32237;BME280;18726;44.732;10.550;2023-11-19T09:48:00;101536.94;;;41.50;17.97
32237;BME280;18726;44.732;10.550;2023-11-19T09:51:07;101531.88;;;41.88;18.11
32237;BME280;18726;44.732;10.550;2023-11-19T09:54:11;101536.09;;;42.53;17.65
32237;BME280;18726;44.732;10.550;2023-11-19T09:57:16;101530.38;;;43.34;17.16
32237;BME280;18726;44.732;10.550;2023-11-19T10:00:21;101537.25;;;43.18;17.53
32237;BME280;18726;44.732;10.550;2023-11-19T10:03:35;101526.03;;;43.20;17.29
32237;BME280;18726;44.732;10.550;2023-11-19T10:06:42;101526.47;;;42.90;18.27
32237;BME280;18726;44.732;10.550;2023-11-19T10:09:46;101527.63;;;43.08;17.96
32237;BME280;18726;44.732;10.550;2023-11-19T10:12:51;101528.56;;;42.90;18.01
32237;BME280;18726;44.732;10.550;2023-11-19T10:15:57;101532.25;;;42.37;17.79
32237;BME280;18726;44.732;10.550;2023-11-19T10:19:01;101525.03;;;42.97;17.20
32237;BME280;18726;44.732;10.550;2023-11-19T10:22:04;101530.59;;;42.55;17.56
32237;BME280;18726;44.732;10.550;2023-11-19T10:25:26;101516.09;;;42.00;18.73
32237;BME280;18726;44.732;10.550;2023-11-19T10:28:39;101524.78;;;41.31;18.43
32237;BME280;18726;44.732;10.550;2023-11-19T10:31:55;101495.97;;;39.32;19.65
32237;BME280;18726;44.732;10.550;2023-11-19T10:35:06;101492.69;;;37.17;21.49
32237;BME280;18726;44.732;10.550;2023-11-19T10:38:14;101498.66;;;35.43;21.92
32237;BME280;18726;44.732;10.550;2023-11-19T10:44:32;101482.31;;;33.70;25.71
32237;BME280;18726;44.732;10.550;2023-11-19T10:47:39;101468.88;;;32.91;25.72
32237;BME280;18726;44.732;10.550;2023-11-19T10:50:44;101472.31;;;32.24;27.70
32237;BME280;18726;44.732;10.550;2023-11-19T10:53:49;101460.38;;;31.63;27.04
32237;BME280;18726;44.732;10.550;2023-11-19T10:56:59;101454.53;;;31.42;28.11
32237;BME280;18726;44.732;10.550;2023-11-19T11:00:05;101437.25;;;30.98;29.21
32237;BME280;18726;44.732;10.550;2023-11-19T11:06:21;101434.97;;;30.87;28.79
32237;BME280;18726;44.732;10.550;2023-11-19T11:09:27;101418.97;;;30.11;27.89
32237;BME280;18726;44.732;10.550;2023-11-19T11:12:37;101420.00;;;29.55;29.11
32237;BME280;18726;44.732;10.550;2023-11-19T11:15:45;101427.84;;;29.17;31.50
32237;BME280;18726;44.732;10.550;2023-11-19T11:18:50;101421.59;;;28.69;29.46
32237;BME280;18726;44.732;10.550;2023-11-19T11:21:55;101413.25;;;28.09;31.82
32237;BME280;18726;44.732;10.550;2023-11-19T11:25:16;101410.03;;;28.80;31.05
32237;BME280;18726;44.732;10.550;2023-11-19T11:32:08;101407.66;;;29.13;31.71
32237;BME280;18726;44.732;10.550;2023-11-19T11:35:48;101410.66;;;28.62;29.92
32237;BME280;18726;44.732;10.550;2023-11-19T11:38:58;101401.69;;;28.67;32.71
32237;BME280;18726;44.732;10.550;2023-11-19T11:45:39;101381.66;;;28.00;31.43
32237;BME280;18726;44.732;10.550;2023-11-19T11:48:48;101372.91;;;27.21;33.51
32237;BME280;18726;44.732;10.550;2023-11-19T11:51:58;101360.53;;;27.99;34.37
32237;BME280;18726;44.732;10.550;2023-11-19T11:55:04;101353.38;;;27.09;32.09
32237;BME280;18726;44.732;10.550;2023-11-19T11:58:12;101362.44;;;27.51;33.05
32237;BME280;18726;44.732;10.550;2023-11-19T12:01:16;101363.16;;;28.28;35.47
32237;BME280;18726;44.732;10.550;2023-11-19T12:04:26;101356.16;;;28.45;33.68
32237;BME280;18726;44.732;10.550;2023-11-19T12:07:30;101344.34;;;27.55;33.04
32237;BME280;18726;44.732;10.550;2023-11-19T12:10:49;101345.28;;;28.12;35.51
32237;BME280;18726;44.732;10.550;2023-11-19T12:13:55;101340.28;;;28.42;34.88
32237;BME280;18726;44.732;10.550;2023-11-19T12:20:34;101332.56;;;28.46;34.45
32237;BME280;18726;44.732;10.550;2023-11-19T12:23:45;101330.59;;;26.98;33.56
32237;BME280;18726;44.732;10.550;2023-11-19T12:26:51;101331.88;;;26.06;36.94
32237;BME280;18726;44.732;10.550;2023-11-19T12:29:57;101324.00;;;25.88;38.47
32237;BME280;18726;44.732;10.550;2023-11-19T12:33:07;101314.59;;;26.28;36.57
32237;BME280;18726;44.732;10.550;2023-11-19T12:36:11;101316.09;;;25.87;32.32
32237;BME280;18726;44.732;10.550;2023-11-19T12:39:14;101304.34;;;25.79;34.35
32237;BME280;18726;44.732;10.550;2023-11-19T12:42:18;101294.25;;;24.61;37.37
32237;BME280;18726;44.732;10.550;2023-11-19T12:45:23;101291.34;;;25.24;38.85
32237;BME280;18726;44.732;10.550;2023-11-19T12:48:29;101284.53;;;25.09;37.63
32237;BME280;18726;44.732;10.550;2023-11-19T12:51:32;101287.38;;;25.57;39.40
32237;BME280;18726;44.732;10.550;2023-11-19T12:54:37;101282.78;;;24.79;35.36
32237;BME280;18726;44.732;10.550;2023-11-19T12:57:42;101274.25;;;24.50;36.53
32237;BME280;18726;44.732;10.550;2023-11-19T13:00:45;101260.28;;;24.73;35.48
32237;BME280;18726;44.732;10.550;2023-11-19T13:03:49;101271.50;;;25.22;38.24
32237;BME280;18726;44.732;10.550;2023-11-19T13:06:54;101266.91;;;24.40;36.87
32237;BME280;18726;44.732;10.550;2023-11-19T13:10:01;101267.13;;;24.49;39.64
32237;BME280;18726;44.732;10.550;2023-11-19T13:13:08;101259.84;;;24.75;35.73
32237;BME280;18726;44.732;10.550;2023-11-19T13:16:12;101251.34;;;25.02;40.21
32237;BME280;18726;44.732;10.550;2023-11-19T13:19:16;101245.78;;;25.02;36.97
32237;BME280;18726;44.732;10.550;2023-11-19T13:22:22;101250.59;;;25.34;40.07
32237;BME280;18726;44.732;10.550;2023-11-19T13:25:26;101242.84;;;25.57;41.09
32237;BME280;18726;44.732;10.550;2023-11-19T13:28:31;101240.06;;;24.89;38.40
32237;BME280;18726;44.732;10.550;2023-11-19T13:31:34;101228.31;;;24.26;39.14
32237;BME280;18726;44.732;10.550;2023-11-19T13:34:38;101239.41;;;24.65;39.21
32237;BME280;18726;44.732;10.550;2023-11-19T13:37:42;101228.09;;;24.92;39.23
32237;BME280;18726;44.732;10.550;2023-11-19T13:40:46;101216.63;;;24.14;38.20
32237;BME280;18726;44.732;10.550;2023-11-19T13:43:50;101218.59;;;23.94;37.27
32237;BME280;18726;44.732;10.550;2023-11-19T13:46:54;101214.50;;;23.32;41.08
32237;BME280;18726;44.732;10.550;2023-11-19T13:49:57;101220.41;;;23.81;44.27
32237;BME280;18726;44.732;10.550;2023-11-19T13:53:00;101214.63;;;24.35;45.50
32237;BME280;18726;44.732;10.550;2023-11-19T13:56:05;101215.59;;;24.64;44.31
32237;BME280;18726;44.732;10.550;2023-11-19T13:59:09;101223.09;;;24.83;44.30
32237;BME280;18726;44.732;10.550;2023-11-19T14:02:13;101215.22;;;24.46;41.14
32237;BME280;18726;44.732;10.550;2023-11-19T14:05:16;101213.84;;;24.34;44.15
32237;BME280;18726;44.732;10.550;2023-11-19T14:08:20;101198.59;;;24.03;44.02
32237;BME280;18726;44.732;10.550;2023-11-19T14:11:24;101213.28;;;23.80;42.10
32237;BME280;18726;44.732;10.550;2023-11-19T14:14:27;101217.53;;;23.65;44.32
32237;BME280;18726;44.732;10.550;2023-11-19T14:17:31;101220.06;;;23.99;43.53
32237;BME280;18726;44.732;10.550;2023-11-19T14:20:35;101223.22;;;24.01;44.12
32237;BME280;18726;44.732;10.550;2023-11-19T14:23:41;101220.66;;;24.10;44.92
32237;BME280;18726;44.732;10.550;2023-11-19T14:26:46;101218.19;;;24.15;45.33
32237;BME280;18726;44.732;10.550;2023-11-19T14:29:50;101219.88;;;24.09;44.32
32237;BME280;18726;44.732;10.550;2023-11-19T14:32:54;101205.63;;;24.07;48.40
32237;BME280;18726;44.732;10.550;2023-11-19T14:35:58;101198.34;;;23.74;42.70
32237;BME280;18726;44.732;10.550;2023-11-19T14:39:01;101200.03;;;23.68;44.77
32237;BME280;18726;44.732;10.550;2023-11-19T14:42:05;101196.19;;;23.62;47.08
32237;BME280;18726;44.732;10.550;2023-11-19T14:45:09;101189.22;;;23.50;47.81
32237;BME280;18726;44.732;10.550;2023-11-19T14:48:15;101185.66;;;23.26;47.63
32237;BME280;18726;44.732;10.550;2023-11-19T14:51:20;101178.13;;;23.50;48.13
32237;BME280;18726;44.732;10.550;2023-11-19T14:54:24;101176.41;;;23.36;47.94
32237;BME280;18726;44.732;10.550;2023-11-19T14:57:28;101182.13;;;23.26;49.17
32237;BME280;18726;44.732;10.550;2023-11-19T15:00:32;101184.31;;;23.38;50.54
32237;BME280;18726;44.732;10.550;2023-11-19T15:03:37;101180.75;;;23.37;51.27
32237;BME280;18726;44.732;10.550;2023-11-19T15:06:40;101189.53;;;23.32;50.57
32237;BME280;18726;44.732;10.550;2023-11-19T15:09:44;101188.03;;;23.28;51.41
32237;BME280;18726;44.732;10.550;2023-11-19T15:12:47;101199.16;;;23.24;52.60
32237;BME280;18726;44.732;10.550;2023-11-19T15:15:51;101198.91;;;23.15;53.21
32237;BME280;18726;44.732;10.550;2023-11-19T15:18:59;101202.66;;;23.05;52.14
32237;BME280;18726;44.732;10.550;2023-11-19T15:22:03;101219.38;;;22.98;52.83
32237;BME280;18726;44.732;10.550;2023-11-19T15:25:08;101211.63;;;22.85;53.93
32237;BME280;18726;44.732;10.550;2023-11-19T15:28:14;101220.47;;;22.73;54.25
32237;BME280;18726;44.732;10.550;2023-11-19T15:31:17;101222.59;;;22.62;53.70
32237;BME280;18726;44.732;10.550;2023-11-19T15:34:21;101231.00;;;22.55;54.81
32237;BME280;18726;44.732;10.550;2023-11-19T15:37:24;101236.72;;;22.41;54.98
32237;BME280;18726;44.732;10.550;2023-11-19T15:40:28;101237.63;;;22.31;55.81
32237;BME280;18726;44.732;10.550;2023-11-19T15:43:32;101235.84;;;22.13;55.84
32237;BME280;18726;44.732;10.550;2023-11-19T15:46:36;101238.75;;;21.54;52.23
32237;BME280;18726;44.732;10.550;2023-11-19T15:49:39;101223.63;;;20.45;53.83
32237;BME280;18726;44.732;10.550;2023-11-19T15:52:43;101211.19;;;19.62;56.83
32237;BME280;18726;44.732;10.550;2023-11-19T15:55:48;101225.31;;;19.46;60.24
32237;BME280;18726;44.732;10.550;2023-11-19T15:58:52;101236.75;;;19.84;66.27
32237;BME280;18726;44.732;10.550;2023-11-19T16:01:58;101246.50;;;20.45;66.30
32237;BME280;18726;44.732;10.550;2023-11-19T16:05:02;101255.44;;;20.71;63.23
32237;BME280;18726;44.732;10.550;2023-11-19T16:08:08;101249.47;;;20.79;63.78
32237;BME280;18726;44.732;10.550;2023-11-19T16:11:14;101242.72;;;20.87;66.06